createdAt,value
2023-03-18T00:01:36.172Z,68.74
2023-03-18T00:04:04.832Z,68.58
2023-03-18T00:06:33.205Z,68.43
2023-03-18T00:09:02.461Z,68.69
2023-03-18T00:11:32.426Z,68.47
2023-03-18T00:14:00.893Z,68.92
2023-03-18T00:16:29.403Z,69.18
2023-03-18T00:18:57.742Z,69.25
2023-03-18T00:21:27.122Z,69.35
2023-03-18T00:23:56.664Z,69.12
2023-03-18T00:26:25.717Z,68.94
2023-03-18T00:28:57.857Z,69.29
2023-03-18T00:31:27.721Z,69.35
2023-03-18T00:33:56.610Z,69.55
2023-03-18T00:36:26.395Z,69.33
2023-03-18T00:38:58.020Z,69.35
2023-03-18T00:41:28.229Z,69.32
2023-03-18T00:43:59.110Z,69.08
2023-03-18T00:46:29.953Z,69.24
2023-03-18T00:49:02.132Z,69.33
2023-03-18T00:51:33.303Z,69.37
2023-03-18T00:54:04.628Z,69.21
2023-03-18T00:56:34.069Z,69.30
2023-03-18T00:59:04.376Z,69.53
2023-03-18T01:01:32.832Z,69.77
2023-03-18T01:04:02.767Z,70.06
2023-03-18T01:06:34.025Z,71.68
2023-03-18T01:09:05.104Z,73.25
2023-03-18T01:11:34.483Z,73.80
2023-03-18T01:14:04.742Z,73.88
2023-03-18T01:16:33.196Z,73.98
2023-03-18T01:19:01.616Z,74.24
2023-03-18T01:21:30.016Z,74.66
2023-03-18T01:24:01.798Z,74.65
2023-03-18T01:26:31.699Z,74.79
2023-03-18T01:29:03.783Z,74.90
2023-03-18T01:31:34.661Z,75.22
2023-03-18T01:34:08.088Z,75.49
2023-03-18T01:36:46.521Z,75.96
2023-03-18T01:39:15.598Z,76.64
2023-03-18T01:41:44.684Z,76.96
2023-03-18T01:44:21.915Z,78.16
2023-03-18T01:46:53.223Z,78.44
2023-03-18T01:49:27.155Z,79.12
2023-03-18T01:51:58.969Z,79.34
2023-03-18T01:54:30.348Z,79.90
2023-03-18T01:56:59.108Z,81.97
2023-03-18T01:59:31.716Z,82.99
2023-03-18T02:02:06.607Z,84.37
2023-03-18T02:04:41.220Z,84.58
2023-03-18T02:07:17.054Z,83.45
2023-03-18T02:09:46.335Z,85.32
2023-03-18T02:12:18.168Z,84.88
2023-03-18T02:14:48.249Z,85.62
2023-03-18T02:17:20.442Z,87.14
2023-03-18T02:20:01.320Z,85.64
2023-03-18T02:22:34.287Z,86.15
2023-03-18T02:25:23.190Z,88.35
2023-03-18T02:27:59.234Z,88.70
2023-03-18T02:30:36.727Z,87.68
2023-03-18T02:33:08.056Z,86.80
2023-03-18T02:35:38.848Z,88.67
2023-03-18T02:38:07.319Z,90.14
2023-03-18T02:40:39.729Z,90.49
2023-03-18T02:43:23.445Z,90.90
2023-03-18T02:46:13.065Z,91.23
2023-03-18T02:48:46.314Z,92.29
2023-03-18T02:51:17.577Z,93.17
2023-03-18T02:53:46.939Z,92.08
2023-03-18T02:56:16.309Z,92.47
2023-03-18T02:58:46.692Z,92.03
2023-03-18T03:01:17.568Z,93.26
2023-03-18T03:03:46.095Z,93.35
2023-03-18T03:06:15.497Z,94.45
2023-03-18T03:08:44.766Z,94.91
2023-03-18T03:11:13.231Z,95.42
2023-03-18T03:13:45.336Z,94.01
2023-03-18T03:16:17.867Z,92.51
2023-03-18T03:18:46.325Z,92.91
2023-03-18T03:21:16.239Z,93.39
2023-03-18T03:23:45.419Z,94.32
2023-03-18T03:26:16.728Z,95.33
2023-03-18T03:28:45.166Z,95.15
2023-03-18T03:31:16.966Z,96.04
2023-03-18T03:33:46.096Z,96.97
2023-03-18T03:36:18.066Z,96.92
2023-03-18T03:38:47.061Z,97.92
2023-03-18T03:41:15.992Z,98.38
2023-03-18T03:43:45.782Z,99.76
2023-03-18T03:46:14.475Z,98.90
2023-03-18T03:48:44.940Z,98.28
2023-03-18T03:51:15.875Z,98.23
2023-03-18T03:53:46.281Z,98.79
2023-03-18T03:56:15.715Z,100.00
2023-03-18T03:58:44.831Z,100.00
2023-03-18T04:01:13.667Z,100.00
2023-03-18T04:03:44.471Z,99.88
2023-03-18T04:06:13.351Z,99.15
2023-03-18T04:08:48.466Z,100.00
2023-03-18T04:11:17.297Z,100.00
2023-03-18T04:13:45.790Z,100.00
2023-03-18T04:16:14.533Z,100.00
2023-03-18T04:18:44.617Z,100.00
2023-03-18T04:21:13.288Z,100.00
2023-03-18T04:23:46.603Z,100.00
2023-03-18T04:26:15.014Z,100.00
2023-03-18T04:28:43.660Z,100.00
2023-03-18T04:31:15.680Z,100.00
2023-03-18T04:33:45.861Z,100.00
2023-03-18T04:36:14.229Z,100.00
2023-03-18T04:38:43.543Z,100.00
2023-03-18T04:41:12.226Z,100.00
2023-03-18T04:43:40.936Z,100.00
2023-03-18T04:46:10.262Z,100.00
2023-03-18T04:48:39.008Z,100.00
2023-03-18T04:51:12.620Z,100.00
2023-03-18T04:53:42.101Z,100.00
2023-03-18T04:56:11.805Z,100.00
2023-03-18T04:58:48.660Z,100.00
2023-03-18T05:01:21.615Z,100.00
2023-03-18T05:03:50.351Z,100.00
2023-03-18T05:06:28.123Z,100.00
2023-03-18T05:09:00.084Z,100.00
2023-03-18T05:11:34.286Z,100.00
2023-03-18T05:14:11.962Z,100.00
2023-03-18T05:16:45.510Z,100.00
2023-03-18T05:19:14.586Z,100.00
2023-03-18T05:21:51.582Z,100.00
2023-03-18T05:24:20.805Z,100.00
2023-03-18T05:26:49.606Z,100.00
2023-03-18T05:29:22.150Z,100.00
2023-03-18T05:32:12.741Z,100.00
2023-03-18T05:34:42.468Z,100.00
2023-03-18T05:37:15.996Z,100.00
2023-03-18T05:39:59.368Z,100.00
2023-03-18T05:42:29.805Z,100.00
2023-03-18T05:44:58.735Z,100.00
2023-03-18T05:47:27.880Z,100.00
2023-03-18T05:50:14.384Z,100.00
2023-03-18T05:52:44.558Z,100.00
2023-03-18T05:55:20.346Z,100.00
2023-03-18T05:57:49.244Z,100.00
2023-03-18T06:00:20.235Z,100.00
2023-03-18T06:02:52.415Z,100.00
2023-03-18T06:05:21.129Z,100.00
2023-03-18T06:07:51.482Z,100.00
2023-03-18T06:10:20.898Z,100.00
2023-03-18T06:12:50.666Z,100.00
2023-03-18T06:15:21.448Z,100.00
2023-03-18T06:17:50.554Z,100.00
2023-03-18T06:20:19.882Z,100.00
2023-03-18T06:22:50.628Z,100.00
2023-03-18T06:25:22.205Z,100.00
2023-03-18T06:27:52.273Z,100.00
2023-03-18T06:30:24.110Z,100.00
2023-03-18T06:32:55.094Z,100.00
2023-03-18T06:35:28.239Z,100.00
2023-03-18T06:37:58.179Z,100.00
2023-03-18T06:40:26.725Z,100.00
2023-03-18T06:42:56.523Z,100.00
2023-03-18T06:45:37.564Z,100.00
2023-03-18T06:48:09.654Z,100.00
2023-03-18T06:50:43.187Z,100.00
2023-03-18T06:53:23.404Z,100.00
2023-03-18T06:55:53.964Z,100.00
2023-03-18T06:58:25.995Z,100.00
2023-03-18T07:01:04.127Z,100.00
2023-03-18T07:03:38.796Z,100.00
2023-03-18T07:06:09.796Z,100.00
2023-03-18T07:08:41.254Z,100.00
2023-03-18T07:11:09.987Z,100.00
2023-03-18T07:13:41.705Z,100.00
2023-03-18T07:16:18.243Z,100.00
2023-03-18T07:18:46.883Z,100.00
2023-03-18T07:21:16.838Z,97.11
2023-03-18T07:23:47.275Z,95.78
2023-03-18T07:26:15.715Z,95.77
2023-03-18T07:28:44.178Z,95.00
2023-03-18T07:31:13.123Z,94.58
2023-03-18T07:33:41.766Z,92.62
2023-03-18T07:36:11.045Z,90.13
2023-03-18T07:38:40.097Z,88.67
2023-03-18T07:41:10.107Z,85.00
2023-03-18T07:43:38.645Z,83.35
2023-03-18T07:46:07.074Z,82.54
2023-03-18T07:48:35.557Z,80.16
2023-03-18T07:51:04.051Z,80.26
2023-03-18T07:53:33.793Z,78.03
2023-03-18T07:56:02.166Z,76.07
2023-03-18T07:58:32.763Z,73.72
2023-03-18T08:01:01.241Z,73.75
2023-03-18T08:03:29.893Z,74.45
2023-03-18T08:05:58.413Z,73.64
2023-03-18T08:08:26.978Z,74.79
2023-03-18T08:10:58.677Z,73.44
2023-03-18T08:13:27.451Z,66.97
2023-03-18T08:15:57.412Z,63.07
2023-03-18T08:18:26.556Z,60.76
2023-03-18T08:20:55.440Z,58.04
2023-03-18T08:23:24.079Z,56.54
2023-03-18T08:25:53.018Z,52.72
2023-03-18T08:28:21.396Z,50.90
2023-03-18T08:30:49.819Z,49.92
2023-03-18T08:33:19.652Z,47.82
2023-03-18T08:35:49.569Z,48.64
2023-03-18T08:38:18.185Z,47.81
2023-03-18T08:40:47.500Z,46.60
2023-03-18T08:43:16.066Z,46.16
2023-03-18T08:45:44.864Z,46.29
2023-03-18T08:48:13.318Z,44.56
2023-03-18T08:50:43.320Z,44.06
2023-03-18T08:53:13.108Z,43.14
2023-03-18T08:55:44.665Z,43.35
2023-03-18T08:58:13.167Z,41.99
2023-03-18T09:00:42.961Z,43.15
2023-03-18T09:03:11.691Z,41.36
2023-03-18T09:05:40.391Z,40.73
2023-03-18T09:08:10.361Z,41.32
2023-03-18T09:10:38.882Z,41.16
2023-03-18T09:13:08.285Z,40.40
2023-03-18T09:15:36.838Z,40.08
2023-03-18T09:18:11.347Z,41.38
2023-03-18T09:20:41.005Z,40.27
2023-03-18T09:23:11.515Z,38.02
2023-03-18T09:25:40.351Z,39.71
2023-03-18T09:28:08.795Z,39.28
2023-03-18T09:30:38.122Z,37.36
2023-03-18T09:33:07.729Z,37.66
2023-03-18T09:35:37.194Z,38.14
2023-03-18T09:38:06.728Z,37.20
2023-03-18T09:40:39.463Z,37.79
2023-03-18T09:43:24.834Z,37.77
2023-03-18T09:46:03.176Z,38.50
2023-03-18T09:48:58.242Z,37.70
2023-03-18T09:51:39.820Z,38.57
2023-03-18T09:54:14.101Z,39.71
2023-03-18T09:56:46.768Z,39.49
2023-03-18T09:59:22.689Z,38.20
2023-03-18T10:01:55.318Z,40.85
2023-03-18T10:04:27.957Z,38.45
2023-03-18T10:07:01.412Z,38.10
2023-03-18T10:09:35.374Z,39.02
2023-03-18T10:12:15.142Z,37.60
2023-03-18T10:14:50.028Z,37.24
2023-03-18T10:17:22.800Z,39.77
2023-03-18T10:19:55.657Z,38.09
2023-03-18T10:22:57.672Z,36.86
2023-03-18T10:25:35.067Z,37.32
2023-03-18T10:28:34.785Z,37.02
2023-03-18T10:31:15.436Z,36.38
2023-03-18T10:33:49.833Z,37.18
2023-03-18T10:36:23.948Z,37.77
2023-03-18T10:38:56.245Z,37.63
2023-03-18T10:41:30.359Z,38.22
2023-03-18T10:44:04.932Z,40.31
2023-03-18T10:46:35.724Z,39.98
2023-03-18T10:49:11.432Z,41.05
2023-03-18T10:51:46.502Z,39.16
2023-03-18T10:54:24.233Z,40.06
2023-03-18T10:56:53.769Z,39.55
2023-03-18T10:59:25.836Z,40.13
2023-03-18T11:02:01.008Z,39.80
2023-03-18T11:04:32.039Z,39.92
2023-03-18T11:07:04.344Z,39.09
2023-03-18T11:09:36.392Z,40.00
2023-03-18T11:12:07.170Z,39.79
2023-03-18T11:14:38.433Z,40.31
2023-03-18T11:17:20.824Z,39.28
2023-03-18T11:20:00.081Z,40.24
2023-03-18T11:22:30.208Z,38.83
2023-03-18T11:25:15.021Z,46.56
2023-03-18T11:27:47.189Z,37.21
2023-03-18T11:30:34.026Z,37.33
2023-03-18T11:33:07.342Z,38.67
2023-03-18T11:35:41.984Z,41.54
2023-03-18T11:38:20.769Z,39.83
2023-03-18T11:40:49.176Z,41.71
2023-03-18T11:43:21.616Z,38.19
2023-03-18T11:45:58.356Z,40.87
2023-03-18T11:48:36.574Z,37.71
2023-03-18T11:51:36.728Z,38.12
2023-03-18T11:54:24.967Z,38.89
2023-03-18T11:56:58.787Z,39.48
2023-03-18T11:59:45.481Z,41.10
2023-03-18T12:02:47.738Z,42.92
2023-03-18T12:05:40.580Z,41.44
2023-03-18T12:08:20.714Z,43.04
2023-03-18T12:10:56.381Z,41.99
2023-03-18T12:13:41.027Z,44.40
2023-03-18T12:16:20.281Z,45.18
2023-03-18T12:19:12.649Z,45.49
2023-03-18T12:22:08.283Z,43.59
2023-03-18T12:25:03.491Z,43.35
2023-03-18T12:27:43.994Z,42.75
2023-03-18T12:30:45.093Z,43.32
2023-03-18T12:33:29.340Z,43.62
2023-03-18T12:36:12.483Z,43.28
2023-03-18T12:39:09.265Z,41.84
2023-03-18T12:41:52.613Z,41.57
2023-03-18T12:44:38.901Z,42.92
2023-03-18T12:47:13.008Z,42.79
2023-03-18T12:49:46.274Z,41.90
2023-03-18T12:52:30.214Z,42.80
2023-03-18T12:55:06.059Z,41.73
2023-03-18T12:57:43.530Z,42.08
2023-03-18T13:00:24.694Z,42.20
2023-03-18T13:03:23.490Z,41.82
2023-03-18T13:05:56.983Z,42.89
2023-03-18T13:08:54.261Z,46.39
2023-03-18T13:11:55.719Z,42.78
2023-03-18T13:14:32.771Z,44.50
2023-03-18T13:17:02.234Z,45.38
2023-03-18T13:19:31.364Z,43.44
2023-03-18T13:22:16.827Z,43.71
2023-03-18T13:25:17.901Z,46.07
2023-03-18T13:28:45.748Z,45.72
2023-03-18T13:31:28.880Z,44.08
2023-03-18T13:34:36.067Z,44.60
2023-03-18T13:37:31.800Z,44.14
2023-03-18T13:40:38.652Z,44.83
2023-03-18T13:43:13.511Z,45.04
2023-03-18T13:45:45.931Z,46.06
2023-03-18T13:48:18.308Z,44.69
2023-03-18T13:50:48.883Z,44.60
2023-03-18T13:53:26.682Z,45.12
2023-03-18T13:56:04.997Z,44.50
2023-03-18T13:58:37.474Z,45.43
2023-03-18T14:01:28.695Z,45.07
2023-03-18T14:04:18.722Z,46.66
2023-03-18T14:06:54.373Z,46.06
2023-03-18T14:09:48.954Z,44.11
2023-03-18T14:12:42.206Z,44.25
2023-03-18T14:15:39.616Z,44.23
2023-03-18T14:18:27.623Z,47.42
2023-03-18T14:21:02.674Z,45.07
2023-03-18T14:23:39.355Z,46.98
2023-03-18T14:26:19.565Z,45.79
2023-03-18T14:28:54.919Z,45.05
2023-03-18T14:31:57.805Z,45.74
2023-03-18T14:34:33.138Z,46.19
2023-03-18T14:37:27.891Z,46.02
2023-03-18T14:40:02.200Z,46.75
2023-03-18T14:42:46.045Z,44.75
2023-03-18T14:45:22.998Z,46.46
2023-03-18T14:47:53.686Z,46.07
2023-03-18T14:50:34.790Z,44.66
2023-03-18T14:53:12.348Z,45.63
2023-03-18T14:55:41.606Z,44.94
2023-03-18T14:58:17.921Z,44.86
2023-03-18T15:00:51.667Z,44.85
2023-03-18T15:03:24.946Z,46.27
2023-03-18T15:05:58.093Z,45.71
2023-03-18T15:08:44.638Z,45.54
2023-03-18T15:11:16.605Z,46.48
2023-03-18T15:13:46.528Z,46.25
2023-03-18T15:16:21.892Z,45.53
2023-03-18T15:18:54.840Z,45.32
2023-03-18T15:21:28.732Z,45.48
2023-03-18T15:24:01.970Z,47.21
2023-03-18T15:26:32.695Z,47.41
2023-03-18T15:29:09.974Z,47.18
2023-03-18T15:31:46.197Z,47.37
2023-03-18T15:34:20.992Z,47.16
2023-03-18T15:36:55.515Z,48.50
2023-03-18T15:39:34.028Z,48.34
2023-03-18T15:42:06.789Z,49.06
2023-03-18T15:44:39.308Z,48.78
2023-03-18T15:47:16.700Z,49.37
2023-03-18T15:49:54.551Z,49.33
2023-03-18T15:52:27.012Z,50.03
2023-03-18T15:54:55.707Z,49.88
2023-03-18T15:57:31.008Z,50.26
2023-03-18T16:00:00.257Z,50.25
2023-03-18T16:02:31.661Z,49.72
2023-03-18T16:05:09.395Z,50.27
2023-03-18T16:07:38.715Z,50.67
2023-03-18T16:10:09.436Z,49.99
2023-03-18T16:12:39.615Z,51.00
2023-03-18T16:15:16.328Z,50.82
2023-03-18T16:17:48.992Z,50.23
2023-03-18T16:20:21.573Z,50.17
2023-03-18T16:22:50.272Z,50.40
2023-03-18T16:25:19.124Z,51.35
2023-03-18T16:27:50.697Z,51.89
2023-03-18T16:30:22.670Z,51.84
2023-03-18T16:32:53.395Z,51.39
2023-03-18T16:35:24.601Z,50.95
2023-03-18T16:37:54.500Z,50.94
2023-03-18T16:40:25.437Z,50.85
2023-03-18T16:42:54.345Z,51.54
2023-03-18T16:45:28.683Z,50.58
2023-03-18T16:48:02.285Z,51.79
2023-03-18T16:50:34.943Z,51.30
2023-03-18T16:53:17.583Z,52.08
2023-03-18T16:55:47.534Z,51.55
2023-03-18T16:58:19.704Z,50.65
2023-03-18T17:00:49.783Z,52.11
2023-03-18T17:03:21.168Z,50.77
2023-03-18T17:05:52.085Z,51.19
2023-03-18T17:08:22.120Z,51.63
2023-03-18T17:10:53.952Z,52.26
2023-03-18T17:13:25.978Z,53.72
2023-03-18T17:15:54.882Z,53.58
2023-03-18T17:18:25.773Z,53.57
2023-03-18T17:20:54.183Z,53.98
2023-03-18T17:23:25.386Z,53.82
2023-03-18T17:25:56.871Z,54.41
2023-03-18T17:28:33.112Z,54.60
2023-03-18T17:31:02.177Z,54.40
2023-03-18T17:33:33.944Z,54.53
2023-03-18T17:36:02.772Z,54.98
2023-03-18T17:38:32.262Z,55.29
2023-03-18T17:41:04.001Z,55.53
2023-03-18T17:43:35.182Z,55.87
2023-03-18T17:46:06.194Z,56.35
2023-03-18T17:48:37.856Z,56.94
2023-03-18T17:51:09.206Z,57.50
2023-03-18T17:53:40.337Z,57.88
2023-03-18T17:56:12.431Z,58.47
2023-03-18T17:58:46.111Z,58.27
2023-03-18T18:01:19.955Z,57.75
2023-03-18T18:03:50.030Z,60.00
2023-03-18T18:06:21.007Z,60.31
2023-03-18T18:08:50.370Z,60.74
2023-03-18T18:11:22.910Z,60.91
2023-03-18T18:13:53.219Z,61.09
2023-03-18T18:16:24.222Z,61.75
2023-03-18T18:18:54.147Z,61.51
2023-03-18T18:21:25.049Z,61.69
2023-03-18T18:23:53.573Z,61.99
2023-03-18T18:26:22.974Z,62.48
2023-03-18T18:28:53.448Z,63.40
2023-03-18T18:31:23.980Z,63.25
2023-03-18T18:33:55.929Z,63.34
2023-03-18T18:36:28.120Z,63.82
2023-03-18T18:38:56.781Z,63.80
2023-03-18T18:41:25.938Z,64.29
2023-03-18T18:43:55.649Z,64.21
2023-03-18T18:46:25.115Z,64.40
2023-03-18T18:48:55.309Z,64.42
2023-03-18T18:51:26.058Z,64.44
2023-03-18T18:53:55.763Z,65.40
2023-03-18T18:56:35.353Z,65.63
2023-03-18T18:59:22.259Z,66.17
2023-03-18T19:01:51.471Z,66.37
2023-03-18T19:04:22.822Z,65.89
2023-03-18T19:06:52.445Z,66.16
2023-03-18T19:09:24.425Z,64.96
2023-03-18T19:11:53.837Z,65.74
2023-03-18T19:14:25.540Z,65.73
2023-03-18T19:16:56.465Z,65.77
2023-03-18T19:19:30.534Z,66.62
2023-03-18T19:21:59.295Z,66.41
2023-03-18T19:24:30.996Z,65.93
2023-03-18T19:27:02.592Z,66.40
2023-03-18T19:29:32.688Z,66.46
2023-03-18T19:32:01.411Z,66.86
2023-03-18T19:34:32.364Z,66.44
2023-03-18T19:37:02.889Z,67.00
2023-03-18T19:39:31.816Z,66.70
2023-03-18T19:42:00.369Z,66.75
2023-03-18T19:44:28.931Z,67.02
2023-03-18T19:47:01.126Z,67.23
2023-03-18T19:49:33.712Z,67.65
2023-03-18T19:52:03.145Z,67.51
2023-03-18T19:54:34.225Z,68.68
2023-03-18T19:57:06.907Z,69.00
2023-03-18T19:59:39.651Z,68.85
2023-03-18T20:02:21.964Z,69.15
2023-03-18T20:04:53.048Z,69.76
2023-03-18T20:07:24.288Z,69.41
2023-03-18T20:09:53.553Z,69.50
2023-03-18T20:12:26.876Z,69.69
2023-03-18T20:14:55.401Z,70.48
2023-03-18T20:17:32.480Z,70.48
2023-03-18T20:20:02.661Z,70.82
2023-03-18T20:22:34.945Z,71.14
2023-03-18T20:25:06.094Z,72.11
2023-03-18T20:27:34.484Z,72.24
2023-03-18T20:30:03.373Z,72.71
2023-03-18T20:32:31.835Z,72.63
2023-03-18T20:35:03.597Z,72.89
2023-03-18T20:37:35.005Z,73.46
2023-03-18T20:40:04.919Z,73.35
2023-03-18T20:42:33.865Z,73.31
2023-03-18T20:45:02.298Z,73.06
2023-03-18T20:47:30.701Z,72.83
2023-03-18T20:49:59.122Z,73.35
2023-03-18T20:52:31.273Z,73.27
2023-03-18T20:55:00.330Z,73.44
2023-03-18T20:57:28.721Z,73.77
2023-03-18T20:59:58.037Z,74.56
2023-03-18T21:02:33.021Z,74.83
2023-03-18T21:05:02.734Z,75.24
2023-03-18T21:07:32.532Z,75.57
2023-03-18T21:10:00.981Z,75.74
2023-03-18T21:12:29.730Z,76.13
2023-03-18T21:15:01.099Z,75.78
2023-03-18T21:17:29.929Z,76.19
2023-03-18T21:20:11.078Z,75.90
2023-03-18T21:22:46.490Z,75.80
2023-03-18T21:25:20.710Z,75.58
2023-03-18T21:27:49.950Z,75.87
2023-03-18T21:30:21.523Z,75.89
2023-03-18T21:32:51.256Z,75.94
2023-03-18T21:35:23.133Z,76.08
2023-03-18T21:37:54.184Z,76.25
2023-03-18T21:40:27.404Z,76.32
2023-03-18T21:42:56.090Z,76.21
2023-03-18T21:45:24.958Z,76.74
2023-03-18T21:47:53.696Z,76.54
2023-03-18T21:50:25.250Z,76.35
2023-03-18T21:52:56.149Z,76.59
2023-03-18T21:55:24.610Z,76.68
2023-03-18T21:57:53.029Z,77.25
2023-03-18T22:00:22.508Z,77.25
2023-03-18T22:02:51.204Z,77.31
2023-03-18T22:05:23.030Z,76.98
2023-03-18T22:07:52.049Z,77.03
2023-03-18T22:10:24.483Z,76.71
2023-03-18T22:12:53.251Z,76.90
2023-03-18T22:15:46.714Z,76.16
2023-03-18T22:18:16.008Z,76.30
2023-03-18T22:20:47.373Z,76.21
2023-03-18T22:23:19.889Z,76.74
2023-03-18T22:25:52.010Z,76.62
2023-03-18T22:28:20.808Z,76.02
2023-03-18T22:30:52.423Z,75.96
2023-03-18T22:33:25.151Z,76.17
2023-03-18T22:35:54.017Z,75.97
2023-03-18T22:38:24.852Z,76.44
2023-03-18T22:40:57.734Z,76.32
2023-03-18T22:43:33.525Z,76.23
2023-03-18T22:46:05.343Z,75.97
2023-03-18T22:48:34.355Z,76.10
2023-03-18T22:51:03.740Z,76.41
2023-03-18T22:53:35.997Z,76.64
2023-03-18T22:56:10.728Z,77.09
2023-03-18T22:58:39.836Z,77.77
2023-03-18T23:01:08.852Z,77.80
2023-03-18T23:03:40.526Z,78.45
2023-03-18T23:06:10.849Z,79.04
2023-03-18T23:08:39.396Z,78.52
2023-03-18T23:11:09.557Z,79.00
2023-03-18T23:13:40.491Z,79.19
2023-03-18T23:16:14.915Z,79.24
2023-03-18T23:18:43.813Z,79.08
2023-03-18T23:21:16.367Z,79.02
2023-03-18T23:23:45.019Z,79.16
2023-03-18T23:26:15.241Z,79.30
2023-03-18T23:28:45.276Z,79.86
2023-03-18T23:31:14.552Z,79.99
2023-03-18T23:33:43.443Z,80.26
2023-03-18T23:36:15.285Z,80.61
2023-03-18T23:38:44.195Z,80.88
2023-03-18T23:41:14.161Z,80.97
2023-03-18T23:43:42.900Z,80.89
2023-03-18T23:46:12.038Z,80.51
2023-03-18T23:48:40.795Z,80.49
2023-03-18T23:51:09.396Z,80.77
2023-03-18T23:53:38.085Z,81.10
2023-03-18T23:56:07.612Z,81.34
2023-03-18T23:58:37.733Z,81.17
